Terminal Aerodrome Forecast
Issued by NWS Wakefield, VA

Home | Current Version | Previous Version | Text Only | Print | Product List | Glossary On
Versions: 1 2 3 4 5 6 7 8 9 10 11 12 13 14 15 16 17 18 19 20 21 22
000
FTUS41 KAKQ 211800 AAA
TAFECG
TAF AMD
KECG 211850Z 2119/2218 30012KT P6SM SCT040
     FM212300 23007KT P6SM SCT080
     FM220600 30006KT P6SM SCT250
     FM221300 35009KT P6SM SKC=

USA.gov is the U.S. government's official web portal to all federal, state and local government web resources and services.